Time;durP1;ratioP1;P1;durP2;ratioP2;P2;SDS_P1;SDS_P2;PMS_P1;PMS_P2;Temp;Humidity;BMP_temperature;BMP_pressure;BME280_temperature;BME280_humidity;BME280_pressure;Samples;Min_cycle;Max_cycle;Signal;HPM_P1;HPM_P2
2021/11/05 00:00:53;;;;;;;;;;;16.40;42.70;;;;;;8364803;28;19924;-48
2021/11/05 00:04:53;;;;;;;;;;;16.50;42.70;;;;;;8364875;28;19913;-47
2021/11/05 00:08:55;;;;;;;;;;;16.50;42.70;;;;;;8363456;28;21416;-49
2021/11/05 00:12:56;;;;;;;;;;;16.40;42.70;;;;;;8364879;28;19920;-47
2021/11/05 00:16:56;;;;;;;;;;;16.40;42.70;;;;;;8364414;28;19928;-48
2021/11/05 00:20:57;;;;;;;;;;;16.50;42.80;;;;;;8363777;28;20023;-49
2021/11/05 00:24:57;;;;;;;;;;;16.40;42.70;;;;;;8364184;28;20291;-48
2021/11/05 00:28:57;;;;;;;;;;;16.40;42.70;;;;;;8364182;28;19913;-48
2021/11/05 00:32:58;;;;;;;;;;;16.40;42.70;;;;;;8363624;28;19913;-48
2021/11/05 00:36:58;;;;;;;;;;;16.40;42.80;;;;;;8363703;28;19970;-48
2021/11/05 00:40:59;;;;;;;;;;;16.40;42.80;;;;;;8364092;28;20012;-47
2021/11/05 00:45:00;;;;;;;;;;;16.40;42.80;;;;;;8363249;28;20003;-48
2021/11/05 00:49:00;;;;;;;;;;;16.40;42.80;;;;;;8363723;28;19913;-48
2021/11/05 00:53:01;;;;;;;;;;;16.40;42.80;;;;;;8363662;28;19948;-47
2021/11/05 00:57:01;;;;;;;;;;;16.40;42.80;;;;;;8362961;28;19921;-47
2021/11/05 01:01:01;;;;;;;;;;;16.40;42.80;;;;;;8363440;28;20070;-47
2021/11/05 01:05:02;;;;;;;;;;;16.40;42.80;;;;;;8363285;28;19913;-48
2021/11/05 01:09:03;;;;;;;;;;;16.40;42.80;;;;;;8363182;28;19917;-47
2021/11/05 01:13:05;;;;;;;;;;;16.30;42.80;;;;;;8363446;28;19924;-47
2021/11/05 01:17:06;;;;;;;;;;;16.40;42.90;;;;;;8363216;28;20004;-47
2021/11/05 01:21:06;;;;;;;;;;;16.30;42.80;;;;;;8362601;28;20417;-47
2021/11/05 01:25:07;;;;;;;;;;;16.40;42.90;;;;;;8363404;28;19940;-47
2021/11/05 01:29:07;;;;;;;;;;;16.40;42.90;;;;;;8363100;28;19921;-47
2021/11/05 01:33:08;;;;;;;;;;;16.30;42.90;;;;;;8362777;28;20298;-47
2021/11/05 01:37:08;;;;;;;;;;;16.40;42.90;;;;;;8365081;28;19944;-47
2021/11/05 01:41:09;;;;;;;;;;;16.30;42.90;;;;;;8369081;28;19921;-48
2021/11/05 01:45:10;;;;;;;;;;;16.30;42.90;;;;;;8368515;28;20365;-47
2021/11/05 01:49:11;;;;;;;;;;;16.30;42.90;;;;;;8369181;28;19913;-47
2021/11/05 01:53:13;;;;;;;;;;;16.40;42.90;;;;;;8368869;28;19924;-48
2021/11/05 01:57:13;;;;;;;;;;;16.30;42.90;;;;;;8368769;28;20008;-47
2021/11/05 02:01:13;;;;;;;;;;;16.30;42.90;;;;;;8368458;28;19920;-47
2021/11/05 02:05:14;;;;;;;;;;;16.30;42.90;;;;;;8368451;28;19921;-47
2021/11/05 02:09:16;;;;;;;;;;;16.30;42.90;;;;;;8367534;28;20364;-48
2021/11/05 02:13:18;;;;;;;;;;;16.30;43.00;;;;;;8368122;28;20422;-47
2021/11/05 02:17:19;;;;;;;;;;;16.30;42.90;;;;;;8367709;28;19920;-48
2021/11/05 02:21:21;;;;;;;;;;;16.30;43.00;;;;;;8368368;28;20015;-47
2021/11/05 02:25:22;;;;;;;;;;;16.30;43.00;;;;;;8367694;28;20378;-47
2021/11/05 02:29:22;;;;;;;;;;;16.30;43.00;;;;;;8367416;28;19924;-48
2021/11/05 02:33:23;;;;;;;;;;;16.30;43.00;;;;;;8367737;28;20286;-47
2021/11/05 02:37:25;;;;;;;;;;;16.30;43.00;;;;;;8367483;28;19917;-47
2021/11/05 02:41:25;;;;;;;;;;;16.30;43.00;;;;;;8366747;28;19966;-47
2021/11/05 02:45:26;;;;;;;;;;;16.30;43.00;;;;;;8367094;28;19948;-47
2021/11/05 02:49:26;;;;;;;;;;;16.30;43.00;;;;;;8365986;28;19928;-47
2021/11/05 02:53:27;;;;;;;;;;;16.30;43.00;;;;;;8366602;28;19967;-47
2021/11/05 02:57:27;;;;;;;;;;;16.30;43.00;;;;;;8366624;28;19944;-47
2021/11/05 03:01:28;;;;;;;;;;;16.30;43.00;;;;;;8366652;28;19921;-47
2021/11/05 03:05:28;;;;;;;;;;;16.30;43.00;;;;;;8366139;28;20055;-48
2021/11/05 03:09:39;;;;;;;;;;;16.30;43.00;;;;;;8366587;28;19913;-47
2021/11/05 03:13:40;;;;;;;;;;;16.30;43.00;;;;;;8366559;28;19944;-47
2021/11/05 03:17:41;;;;;;;;;;;16.30;43.00;;;;;;8365822;28;19916;-48
2021/11/05 03:21:42;;;;;;;;;;;16.30;43.00;;;;;;8366273;28;19932;-47
2021/11/05 03:25:42;;;;;;;;;;;16.30;43.00;;;;;;8366050;28;19913;-48
2021/11/05 03:29:43;;;;;;;;;;;16.30;43.00;;;;;;8365606;28;19926;-48
2021/11/05 03:33:44;;;;;;;;;;;16.30;43.00;;;;;;8366208;28;20439;-46
2021/11/05 03:37:44;;;;;;;;;;;16.30;43.00;;;;;;8365705;28;19917;-47
2021/11/05 03:41:45;;;;;;;;;;;16.30;43.10;;;;;;8365191;28;19925;-47
2021/11/05 03:45:45;;;;;;;;;;;16.20;43.00;;;;;;8365542;28;20016;-47
2021/11/05 03:49:46;;;;;;;;;;;16.30;43.00;;;;;;8365328;28;19917;-47
2021/11/05 03:53:46;;;;;;;;;;;16.30;43.10;;;;;;8364679;28;19917;-47
2021/11/05 03:57:47;;;;;;;;;;;16.20;43.00;;;;;;8365050;28;19920;-47
2021/11/05 04:01:47;;;;;;;;;;;16.30;43.10;;;;;;8364228;28;19924;-48
2021/11/05 04:05:48;;;;;;;;;;;16.20;43.00;;;;;;8364357;28;19921;-47
2021/11/05 04:09:48;;;;;;;;;;;16.20;43.00;;;;;;8364991;28;20031;-47
2021/11/05 04:13:49;;;;;;;;;;;16.30;43.10;;;;;;8364677;28;20384;-47
2021/11/05 04:17:49;;;;;;;;;;;16.30;43.10;;;;;;8363790;28;19917;-48
2021/11/05 04:21:50;;;;;;;;;;;16.20;43.10;;;;;;8364172;28;20011;-49
2021/11/05 04:25:50;;;;;;;;;;;16.20;43.10;;;;;;8364296;28;19917;-50
2021/11/05 04:29:51;;;;;;;;;;;16.30;43.10;;;;;;8363794;28;20262;-46
2021/11/05 04:33:51;;;;;;;;;;;16.20;43.10;;;;;;8363910;28;20266;-47
2021/11/05 04:37:52;;;;;;;;;;;16.20;43.10;;;;;;8363829;28;19920;-47
2021/11/05 04:41:52;;;;;;;;;;;16.30;43.10;;;;;;8363466;28;20274;-46
2021/11/05 04:45:52;;;;;;;;;;;16.20;43.10;;;;;;8363986;28;20429;-48
2021/11/05 04:49:53;;;;;;;;;;;16.30;43.10;;;;;;8364151;28;19991;-47
2021/11/05 04:53:53;;;;;;;;;;;16.30;43.10;;;;;;8363057;28;20366;-47
2021/11/05 04:57:54;;;;;;;;;;;16.30;43.10;;;;;;8363252;28;19920;-46
2021/11/05 05:01:54;;;;;;;;;;;16.30;43.10;;;;;;8363643;28;19921;-47
2021/11/05 05:05:55;;;;;;;;;;;16.30;43.10;;;;;;8363225;28;19917;-46
2021/11/05 05:09:56;;;;;;;;;;;16.30;43.10;;;;;;8362960;28;19935;-46
2021/11/05 05:13:56;;;;;;;;;;;16.30;43.10;;;;;;8368678;28;20286;-46
2021/11/05 05:17:57;;;;;;;;;;;16.30;43.10;;;;;;8369351;28;19978;-47
2021/11/05 05:21:57;;;;;;;;;;;16.30;43.10;;;;;;8369694;28;19925;-47
2021/11/05 05:25:57;;;;;;;;;;;16.30;43.10;;;;;;8369817;28;19955;-47
2021/11/05 05:29:58;;;;;;;;;;;16.30;43.10;;;;;;8369392;28;19978;-48
2021/11/05 05:33:59;;;;;;;;;;;16.30;43.10;;;;;;8369500;28;19916;-47
2021/11/05 05:38:01;;;;;;;;;;;16.30;43.10;;;;;;8369085;28;19913;-48
2021/11/05 05:42:01;;;;;;;;;;;16.30;43.10;;;;;;8368473;28;19998;-47
2021/11/05 05:46:02;;;;;;;;;;;16.30;43.20;;;;;;8369148;28;19913;-49
2021/11/05 05:50:06;;;;;;;;;;;16.30;43.20;;;;;;8369105;28;19917;-48
2021/11/05 05:54:07;;;;;;;;;;;16.30;43.20;;;;;;8368183;28;19917;-48
2021/11/05 05:58:07;;;;;;;;;;;16.30;43.20;;;;;;8368800;28;20316;-48
2021/11/05 06:02:08;;;;;;;;;;;16.30;43.20;;;;;;8368528;28;19950;-46
2021/11/05 06:06:08;;;;;;;;;;;16.30;43.20;;;;;;8367874;28;19916;-46
2021/11/05 06:10:09;;;;;;;;;;;16.30;43.20;;;;;;8368364;28;20281;-47
2021/11/05 06:14:10;;;;;;;;;;;16.30;43.20;;;;;;8368024;28;20382;-47
2021/11/05 06:18:11;;;;;;;;;;;16.20;43.70;;;;;;8367654;28;19971;-47
2021/11/05 06:22:11;;;;;;;;;;;16.30;43.20;;;;;;8367735;28;19925;-46
2021/11/05 06:26:12;;;;;;;;;;;16.30;43.30;;;;;;8368016;28;19964;-47
2021/11/05 06:30:13;;;;;;;;;;;16.30;43.20;;;;;;8367352;28;19924;-48
2021/11/05 06:34:14;;;;;;;;;;;16.30;43.30;;;;;;8367764;28;19917;-48
2021/11/05 06:38:15;;;;;;;;;;;16.30;43.30;;;;;;8367355;28;19919;-46
2021/11/05 06:42:20;;;;;;;;;;;16.20;43.20;;;;;;8367210;28;20354;-47
2021/11/05 06:46:21;;;;;;;;;;;16.20;43.20;;;;;;8372508;28;20377;-47
2021/11/05 06:50:21;;;;;;;;;;;16.20;43.20;;;;;;8366902;28;19971;-47
2021/11/05 06:54:22;;;;;;;;;;;16.20;43.20;;;;;;8367047;28;20316;-46
2021/11/05 06:58:23;;;;;;;;;;;16.30;43.30;;;;;;8366589;28;19917;-47
2021/11/05 07:02:24;;;;;;;;;;;16.20;43.30;;;;;;8366056;28;20011;-46
2021/11/05 07:06:24;;;;;;;;;;;16.20;43.30;;;;;;8366681;28;20389;-47
2021/11/05 07:10:25;;;;;;;;;;;16.20;43.30;;;;;;8366546;28;19913;-47
2021/11/05 07:14:25;;;;;;;;;;;16.20;43.30;;;;;;8365789;28;19925;-48
2021/11/05 07:18:27;;;;;;;;;;;16.20;43.30;;;;;;8366091;28;19917;-47
2021/11/05 07:22:27;;;;;;;;;;;16.20;43.30;;;;;;8366207;28;20321;-47
2021/11/05 07:26:33;;;;;;;;;;;16.20;43.30;;;;;;8365651;28;19967;-47
2021/11/05 07:30:34;;;;;;;;;;;16.20;43.30;;;;;;8366508;28;19916;-46
2021/11/05 07:34:36;;;;;;;;;;;16.30;43.30;;;;;;8364814;28;19920;-47
2021/11/05 07:38:36;;;;;;;;;;;16.30;43.90;;;;;;8365007;28;19948;-46
2021/11/05 07:42:37;;;;;;;;;;;16.30;43.30;;;;;;8365523;28;20315;-47
2021/11/05 07:46:40;;;;;;;;;;;16.20;43.20;;;;;;8365453;28;20015;-47
2021/11/05 07:50:41;;;;;;;;;;;16.30;43.30;;;;;;8364859;28;19920;-47
2021/11/05 07:54:41;;;;;;;;;;;16.30;43.30;;;;;;8364987;28;19972;-47
2021/11/05 07:58:42;;;;;;;;;;;16.30;43.30;;;;;;8364781;28;19917;-47
2021/11/05 08:02:43;;;;;;;;;;;16.30;43.30;;;;;;8364047;28;20275;-46
2021/11/05 08:06:44;;;;;;;;;;;16.30;43.30;;;;;;8342223;28;19920;-46
2021/11/05 08:10:44;;;;;;;;;;;16.30;43.30;;;;;;8364295;28;20399;-47
2021/11/05 08:14:45;;;;;;;;;;;16.30;43.30;;;;;;8364067;28;19917;-46
2021/11/05 08:18:46;;;;;;;;;;;16.30;43.30;;;;;;8364582;28;20404;-47
2021/11/05 08:22:46;;;;;;;;;;;16.30;43.30;;;;;;8364205;28;20011;-46
2021/11/05 08:26:48;;;;;;;;;;;16.30;43.30;;;;;;8363938;28;19966;-50
2021/11/05 08:30:49;;;;;;;;;;;16.20;43.30;;;;;;8364359;28;20031;-51
2021/11/05 08:34:50;;;;;;;;;;;16.30;43.30;;;;;;8363830;28;19921;-48
2021/11/05 08:38:51;;;;;;;;;;;16.30;43.30;;;;;;8363349;28;19928;-51
2021/11/05 08:42:51;;;;;;;;;;;16.30;43.30;;;;;;8364147;28;19932;-47
2021/11/05 08:46:52;;;;;;;;;;;16.30;43.30;;;;;;8364006;28;20011;-47
2021/11/05 08:50:53;;;;;;;;;;;16.30;43.30;;;;;;8363356;28;19916;-48
2021/11/05 08:54:53;;;;;;;;;;;16.30;43.30;;;;;;8364004;28;19995;-47
2021/11/05 08:58:54;;;;;;;;;;;16.30;43.30;;;;;;8363333;28;20012;-48
2021/11/05 09:02:54;;;;;;;;;;;16.30;43.30;;;;;;8363109;28;19921;-46
2021/11/05 09:06:55;;;;;;;;;;;16.30;43.30;;;;;;8363643;28;20390;-46
2021/11/05 09:10:59;;;;;;;;;;;16.30;43.30;;;;;;8363452;28;19923;-46
2021/11/05 09:15:00;;;;;;;;;;;16.30;43.30;;;;;;8362850;28;19948;-46
2021/11/05 09:19:04;;;;;;;;;;;16.30;43.30;;;;;;8363367;28;20381;-47
2021/11/05 09:23:05;;;;;;;;;;;16.40;43.30;;;;;;8363123;28;20397;-46
2021/11/05 09:27:05;;;;;;;;;;;16.40;43.30;;;;;;8362763;28;19916;-46
2021/11/05 09:31:06;;;;;;;;;;;16.30;43.20;;;;;;8363296;28;19916;-46
2021/11/05 09:35:07;;;;;;;;;;;16.30;43.30;;;;;;8362886;28;20219;-48
2021/11/05 09:39:07;;;;;;;;;;;16.30;43.20;;;;;;8362517;28;19917;-47
2021/11/05 09:43:08;;;;;;;;;;;16.40;43.20;;;;;;8363016;28;20356;-46
2021/11/05 09:47:08;;;;;;;;;;;16.40;43.20;;;;;;8363177;28;20340;-46
2021/11/05 09:51:09;;;;;;;;;;;16.40;43.20;;;;;;8362219;28;20346;-48
2021/11/05 09:55:10;;;;;;;;;;;16.40;43.20;;;;;;8363277;28;19921;-47
2021/11/05 09:59:10;;;;;;;;;;;16.40;43.20;;;;;;8365937;28;20426;-47
2021/11/05 10:03:11;;;;;;;;;;;16.40;43.20;;;;;;8367958;28;19917;-47
2021/11/05 10:07:12;;;;;;;;;;;16.40;43.20;;;;;;8368856;28;19919;-48
2021/11/05 10:11:24;;;;;;;;;;;16.40;43.30;;;;;;8368311;28;19916;-47
2021/11/05 10:15:27;;;;;;;;;;;16.40;43.30;;;;;;8367801;28;19924;-46
2021/11/05 10:19:46;;;;;;;;;;;16.40;43.30;;;;;;8368199;28;19932;-47
2021/11/05 10:23:47;;;;;;;;;;;16.40;43.30;;;;;;8367528;28;20255;-46
2021/11/05 10:27:57;;;;;;;;;;;16.40;43.30;;;;;;8367690;28;20003;-47
2021/11/05 10:32:05;;;;;;;;;;;16.40;43.20;;;;;;8367801;28;19998;-47
2021/11/05 10:36:08;;;;;;;;;;;16.40;43.30;;;;;;8366912;28;19917;-46
2021/11/05 10:40:11;;;;;;;;;;;16.40;43.30;;;;;;8366991;28;19936;-46
2021/11/05 10:44:13;;;;;;;;;;;16.40;43.30;;;;;;8367263;28;19948;-47
2021/11/05 10:48:15;;;;;;;;;;;16.40;43.30;;;;;;8366615;28;19923;-47
2021/11/05 10:52:20;;;;;;;;;;;16.40;43.30;;;;;;8367165;28;19917;-46
2021/11/05 10:56:25;;;;;;;;;;;16.40;43.30;;;;;;8367108;28;19925;-47
2021/11/05 11:00:30;;;;;;;;;;;16.40;43.20;;;;;;8366652;28;19932;-47
2021/11/05 11:04:30;;;;;;;;;;;16.50;43.30;;;;;;8366858;28;20384;-48
2021/11/05 11:08:33;;;;;;;;;;;16.50;43.30;;;;;;8340692;28;19923;-48
2021/11/05 11:12:40;;;;;;;;;;;16.50;43.30;;;;;;8366613;28;19912;-47
2021/11/05 11:16:42;;;;;;;;;;;16.50;43.30;;;;;;8370571;28;19917;-48
2021/11/05 11:20:43;;;;;;;;;;;16.50;43.20;;;;;;8365485;28;19924;-47
2021/11/05 11:24:44;;;;;;;;;;;16.50;43.20;;;;;;8365862;28;19924;-46
2021/11/05 11:28:45;;;;;;;;;;;16.50;43.20;;;;;;8366282;28;20005;-47
2021/11/05 11:32:46;;;;;;;;;;;16.60;43.20;;;;;;8365456;28;20296;-47
2021/11/05 11:36:49;;;;;;;;;;;16.60;43.20;;;;;;8365650;28;19917;-46
2021/11/05 11:40:50;;;;;;;;;;;16.60;43.10;;;;;;8365340;28;19928;-46
2021/11/05 11:44:51;;;;;;;;;;;16.60;43.20;;;;;;8364782;28;19923;-46
2021/11/05 11:48:52;;;;;;;;;;;16.60;43.10;;;;;;8365086;28;20392;-46
2021/11/05 11:53:04;;;;;;;;;;;16.60;43.10;;;;;;8365259;28;20336;-45
2021/11/05 11:57:18;;;;;;;;;;;16.60;43.10;;;;;;8364912;28;19921;-46
2021/11/05 12:01:20;;;;;;;;;;;16.70;43.10;;;;;;8364839;28;19970;-46
2021/11/05 12:05:35;;;;;;;;;;;16.70;43.10;;;;;;8364284;28;19913;-47
2021/11/05 12:09:36;;;;;;;;;;;16.60;43.10;;;;;;8365020;28;20361;-46
2021/11/05 12:13:37;;;;;;;;;;;16.60;43.10;;;;;;8364368;28;19948;-46
2021/11/05 12:17:49;;;;;;;;;;;16.70;43.10;;;;;;8364287;28;19925;-47
2021/11/05 12:22:08;;;;;;;;;;;16.60;43.10;;;;;;8364218;28;20355;-48
2021/11/05 12:26:09;;;;;;;;;;;16.70;43.10;;;;;;8364271;28;19916;-48
2021/11/05 12:30:12;;;;;;;;;;;16.60;43.10;;;;;;8363569;28;19982;-48
2021/11/05 12:34:21;;;;;;;;;;;16.60;43.20;;;;;;8364134;28;19916;-48
2021/11/05 12:38:22;;;;;;;;;;;16.60;43.20;;;;;;8363742;28;19917;-46
2021/11/05 12:42:34;;;;;;;;;;;16.60;43.20;;;;;;8364172;28;20405;-47
2021/11/05 12:46:42;;;;;;;;;;;16.60;43.30;;;;;;8363705;28;20003;-47
2021/11/05 12:50:45;;;;;;;;;;;16.60;43.30;;;;;;8363261;28;19963;-47
2021/11/05 12:54:47;;;;;;;;;;;16.60;43.30;;;;;;8363751;28;19927;-47
2021/11/05 12:58:47;;;;;;;;;;;16.60;43.30;;;;;;8363588;28;20050;-47
2021/11/05 13:02:55;;;;;;;;;;;16.60;43.30;;;;;;8363176;28;20267;-47
2021/11/05 13:07:04;;;;;;;;;;;16.60;43.30;;;;;;8363564;28;20319;-47
2021/11/05 13:11:09;;;;;;;;;;;16.60;43.40;;;;;;8363935;28;20235;-47
2021/11/05 13:15:10;;;;;;;;;;;16.60;43.40;;;;;;8362867;28;19921;-48
2021/11/05 13:19:15;;;;;;;;;;;16.60;43.40;;;;;;8363155;28;19971;-46
2021/11/05 13:23:16;;;;;;;;;;;16.60;43.40;;;;;;8362784;28;20007;-47
2021/11/05 13:27:17;;;;;;;;;;;16.60;43.40;;;;;;8363452;28;19921;-46
2021/11/05 13:31:19;;;;;;;;;;;16.50;43.40;;;;;;8363240;28;19920;-47
2021/11/05 13:35:19;;;;;;;;;;;16.50;43.40;;;;;;8368308;28;19917;-48
2021/11/05 13:39:22;;;;;;;;;;;16.60;43.50;;;;;;8369449;28;20007;-46
2021/11/05 13:43:23;;;;;;;;;;;16.60;43.50;;;;;;8369507;28;19913;-46
2021/11/05 13:47:24;;;;;;;;;;;16.60;43.50;;;;;;8368792;28;19917;-47
2021/11/05 13:51:27;;;;;;;;;;;16.60;43.50;;;;;;8368610;28;19917;-46
2021/11/05 13:55:29;;;;;;;;;;;16.60;43.50;;;;;;8369246;28;19929;-46
2021/11/05 13:59:31;;;;;;;;;;;16.60;43.50;;;;;;8368054;28;19924;-46
2021/11/05 14:03:32;;;;;;;;;;;16.50;43.40;;;;;;8369109;28;19913;-47
2021/11/05 14:07:33;;;;;;;;;;;16.60;43.50;;;;;;8368527;28;19917;-45
2021/11/05 14:11:34;;;;;;;;;;;16.60;43.50;;;;;;8365480;28;19916;-45
2021/11/05 14:15:36;;;;;;;;;;;16.60;43.50;;;;;;8368464;28;19923;-46
2021/11/05 14:19:36;;;;;;;;;;;16.60;43.50;;;;;;8367966;28;20041;-46
2021/11/05 14:23:36;;;;;;;;;;;16.60;43.50;;;;;;8367866;28;19974;-46
2021/11/05 14:27:37;;;;;;;;;;;16.60;43.50;;;;;;8368016;28;20374;-46
2021/11/05 14:31:57;;;;;;;;;;;16.60;43.40;;;;;;8367729;28;20386;-46
2021/11/05 14:35:58;;;;;;;;;;;16.60;43.50;;;;;;8367154;28;19921;-46
2021/11/05 14:40:00;;;;;;;;;;;16.60;43.50;;;;;;8367524;28;19925;-46
2021/11/05 14:44:01;;;;;;;;;;;16.60;43.50;;;;;;8367309;28;19917;-47
2021/11/05 14:48:09;;;;;;;;;;;16.60;43.50;;;;;;8366710;28;20007;-46
2021/11/05 14:52:12;;;;;;;;;;;16.60;43.50;;;;;;8367317;28;19921;-45
2021/11/05 14:56:30;;;;;;;;;;;16.60;43.60;;;;;;8367582;28;19921;-47
2021/11/05 15:00:30;;;;;;;;;;;16.60;43.60;;;;;;8366757;28;20370;-45
2021/11/05 15:04:31;;;;;;;;;;;16.60;43.50;;;;;;8366893;28;19970;-48
2021/11/05 15:08:31;;;;;;;;;;;16.60;43.50;;;;;;8365861;28;19927;-47
2021/11/05 15:12:33;;;;;;;;;;;16.60;43.60;;;;;;8366510;28;20333;-47
2021/11/05 15:16:34;;;;;;;;;;;16.60;43.60;;;;;;8366349;28;19917;-47
2021/11/05 15:20:35;;;;;;;;;;;16.60;43.60;;;;;;8365643;28;19933;-47
2021/11/05 15:24:35;;;;;;;;;;;16.60;43.60;;;;;;8366024;28;20366;-47
2021/11/05 15:28:37;;;;;;;;;;;16.60;43.60;;;;;;8365658;28;19917;-47
2021/11/05 15:32:37;;;;;;;;;;;16.60;43.60;;;;;;8365271;28;19917;-46
2021/11/05 15:36:39;;;;;;;;;;;16.60;43.60;;;;;;8365535;28;19920;-46
2021/11/05 15:40:40;;;;;;;;;;;16.60;43.60;;;;;;8365333;28;19977;-46
2021/11/05 15:44:41;;;;;;;;;;;16.60;43.60;;;;;;8365605;28;19913;-47
2021/11/05 15:48:41;;;;;;;;;;;16.60;43.70;;;;;;8365235;28;19970;-48
2021/11/05 15:52:42;;;;;;;;;;;16.60;43.70;;;;;;8364997;28;19917;-47
2021/11/05 15:56:42;;;;;;;;;;;16.60;43.80;;;;;;8364425;28;19921;-45
2021/11/05 16:00:43;;;;;;;;;;;16.50;43.70;;;;;;8364980;28;20004;-46
2021/11/05 16:04:44;;;;;;;;;;;16.50;43.70;;;;;;8365035;28;20427;-46
2021/11/05 16:08:44;;;;;;;;;;;16.60;43.70;;;;;;8364116;28;19920;-46
2021/11/05 16:12:45;;;;;;;;;;;16.50;43.70;;;;;;8364546;28;19979;-46
2021/11/05 16:16:46;;;;;;;;;;;16.50;43.70;;;;;;8364559;28;19912;-48
2021/11/05 16:20:47;;;;;;;;;;;16.60;43.80;;;;;;8363815;28;19960;-48
2021/11/05 16:24:47;;;;;;;;;;;16.60;43.80;;;;;;8364678;28;19913;-48
2021/11/05 16:28:47;;;;;;;;;;;16.60;43.80;;;;;;8363932;28;19990;-47
2021/11/05 16:32:48;;;;;;;;;;;16.60;43.70;;;;;;8363527;28;19916;-49
2021/11/05 16:36:48;;;;;;;;;;;16.60;43.70;;;;;;8363912;28;19932;-48
2021/11/05 16:40:49;;;;;;;;;;;16.60;43.70;;;;;;8363774;28;19928;-47
2021/11/05 16:44:49;;;;;;;;;;;16.60;43.70;;;;;;8363525;28;19931;-47
2021/11/05 16:48:51;;;;;;;;;;;16.60;43.70;;;;;;8363575;28;19916;-47
2021/11/05 16:52:52;;;;;;;;;;;16.60;43.70;;;;;;8363684;28;19917;-51
2021/11/05 16:56:53;;;;;;;;;;;16.60;43.70;;;;;;8363002;28;20054;-52
2021/11/05 17:00:54;;;;;;;;;;;16.60;43.60;;;;;;8363482;28;19925;-47
2021/11/05 17:04:54;;;;;;;;;;;16.60;43.60;;;;;;8364138;28;19924;-49
2021/11/05 17:08:55;;;;;;;;;;;16.60;43.60;;;;;;8363839;28;19917;-50
2021/11/05 17:12:55;;;;;;;;;;;16.60;43.60;;;;;;8370233;28;19971;-48
2021/11/05 17:16:56;;;;;;;;;;;16.60;43.70;;;;;;8369686;28;20004;-47
2021/11/05 17:20:57;;;;;;;;;;;16.60;43.70;;;;;;8369540;28;19965;-49
2021/11/05 17:24:59;;;;;;;;;;;16.60;43.70;;;;;;8369869;28;19924;-50
2021/11/05 17:28:59;;;;;;;;;;;16.60;43.70;;;;;;8369536;28;19916;-47
2021/11/05 17:33:00;;;;;;;;;;;16.60;43.60;;;;;;8369037;28;20343;-49
2021/11/05 17:37:01;;;;;;;;;;;16.60;43.60;;;;;;8369439;28;19916;-47
2021/11/05 17:41:02;;;;;;;;;;;16.60;43.60;;;;;;8369313;28;20416;-46
2021/11/05 17:45:03;;;;;;;;;;;16.60;43.70;;;;;;8368819;28;19920;-48
2021/11/05 17:49:06;;;;;;;;;;;16.50;43.60;;;;;;8368861;28;20328;-46
2021/11/05 17:53:07;;;;;;;;;;;16.50;43.60;;;;;;8368856;28;20408;-47
2021/11/05 17:57:07;;;;;;;;;;;16.50;43.60;;;;;;8368493;28;19921;-47
2021/11/05 18:01:09;;;;;;;;;;;16.50;43.60;;;;;;8368688;28;20473;-47
2021/11/05 18:05:09;;;;;;;;;;;16.50;43.60;;;;;;8368885;28;19920;-46
2021/11/05 18:09:10;;;;;;;;;;;16.50;43.60;;;;;;8368196;28;20007;-47
2021/11/05 18:13:12;;;;;;;;;;;16.50;43.60;;;;;;8368399;28;20369;-47
2021/11/05 18:17:12;;;;;;;;;;;16.50;43.60;;;;;;8368101;28;19916;-46
2021/11/05 18:21:13;;;;;;;;;;;16.50;43.60;;;;;;8366978;28;19931;-47
2021/11/05 18:25:13;;;;;;;;;;;16.50;43.60;;;;;;8367998;28;19917;-47
2021/11/05 18:29:18;;;;;;;;;;;16.50;43.60;;;;;;8367775;28;19986;-48
2021/11/05 18:33:19;;;;;;;;;;;16.50;43.60;;;;;;8367362;28;19923;-51
2021/11/05 18:37:19;;;;;;;;;;;16.50;43.60;;;;;;8366596;28;19964;-47
2021/11/05 18:41:19;;;;;;;;;;;16.50;43.60;;;;;;8366886;28;19925;-48
2021/11/05 18:45:27;;;;;;;;;;;16.50;43.60;;;;;;8367579;28;20381;-47
2021/11/05 18:49:27;;;;;;;;;;;16.40;43.50;;;;;;8370878;28;20322;-47
2021/11/05 18:53:28;;;;;;;;;;;16.50;43.70;;;;;;8366841;28;19917;-47
2021/11/05 18:57:28;;;;;;;;;;;16.40;43.50;;;;;;8366961;28;19959;-47
2021/11/05 19:01:29;;;;;;;;;;;16.50;43.60;;;;;;8366692;28;19979;-47
2021/11/05 19:05:30;;;;;;;;;;;16.50;43.60;;;;;;8366719;28;19996;-47
2021/11/05 19:09:31;;;;;;;;;;;16.40;43.50;;;;;;8366488;28;19917;-46
2021/11/05 19:13:34;;;;;;;;;;;16.40;43.50;;;;;;8366570;28;20374;-47
2021/11/05 19:17:36;;;;;;;;;;;16.40;43.50;;;;;;8365816;28;20010;-47
2021/11/05 19:21:37;;;;;;;;;;;16.40;43.50;;;;;;8366794;28;19924;-47
2021/11/05 19:25:39;;;;;;;;;;;16.40;43.50;;;;;;8366376;28;19921;-46
2021/11/05 19:29:39;;;;;;;;;;;16.40;43.50;;;;;;8364712;28;20003;-47
2021/11/05 19:33:41;;;;;;;;;;;16.40;43.40;;;;;;8365731;28;19917;-47
2021/11/05 19:37:41;;;;;;;;;;;16.40;43.40;;;;;;8365581;28;19923;-46
2021/11/05 19:41:42;;;;;;;;;;;16.40;43.40;;;;;;8365044;28;19933;-48
2021/11/05 19:45:44;;;;;;;;;;;16.40;43.40;;;;;;8365465;28;19967;-47
2021/11/05 19:49:47;;;;;;;;;;;16.40;43.40;;;;;;8365400;28;19956;-48
2021/11/05 19:53:48;;;;;;;;;;;16.40;43.40;;;;;;8364631;28;19917;-47
2021/11/05 19:57:49;;;;;;;;;;;16.40;43.40;;;;;;8365400;28;20850;-49
2021/11/05 20:01:49;;;;;;;;;;;16.40;43.40;;;;;;8364885;28;19948;-46
2021/11/05 20:05:50;;;;;;;;;;;16.40;43.50;;;;;;8364475;28;19924;-46
2021/11/05 20:09:53;;;;;;;;;;;16.40;43.40;;;;;;8340979;28;19917;-47
2021/11/05 20:13:55;;;;;;;;;;;16.30;43.40;;;;;;8350779;28;20012;-51
2021/11/05 20:17:55;;;;;;;;;;;16.40;43.50;;;;;;8364132;28;19916;-48
2021/11/05 20:21:56;;;;;;;;;;;16.30;43.30;;;;;;8363219;28;19959;-48
2021/11/05 20:25:58;;;;;;;;;;;16.30;43.30;;;;;;8364482;28;19992;-47
2021/11/05 20:29:58;;;;;;;;;;;16.30;43.30;;;;;;8363499;28;20366;-46
2021/11/05 20:33:59;;;;;;;;;;;16.30;43.30;;;;;;8363900;28;20007;-46
2021/11/05 20:38:00;;;;;;;;;;;16.30;43.30;;;;;;8363998;28;19917;-49
2021/11/05 20:42:00;;;;;;;;;;;16.30;43.30;;;;;;8363098;28;19970;-50
2021/11/05 20:46:03;;;;;;;;;;;16.30;43.30;;;;;;8363986;28;19917;-47
2021/11/05 20:50:04;;;;;;;;;;;16.30;43.30;;;;;;8363792;28;19963;-47
2021/11/05 20:54:05;;;;;;;;;;;16.30;43.30;;;;;;8362910;28;20020;-48
2021/11/05 20:58:09;;;;;;;;;;;16.30;43.30;;;;;;8363744;28;19920;-47
2021/11/05 21:02:09;;;;;;;;;;;16.30;43.30;;;;;;8363364;28;19928;-46
2021/11/05 21:06:10;;;;;;;;;;;16.30;43.30;;;;;;8363383;28;19959;-48
2021/11/05 21:10:12;;;;;;;;;;;16.30;43.30;;;;;;8363267;28;19952;-50
2021/11/05 21:14:13;;;;;;;;;;;16.30;43.30;;;;;;8363580;28;19920;-46
2021/11/05 21:18:14;;;;;;;;;;;16.30;43.30;;;;;;8362764;28;19928;-48
2021/11/05 21:22:14;;;;;;;;;;;16.30;43.30;;;;;;8363258;28;19931;-49
2021/11/05 21:26:16;;;;;;;;;;;16.30;43.30;;;;;;8362986;28;20297;-47
2021/11/05 21:30:16;;;;;;;;;;;16.30;43.30;;;;;;8362966;28;19924;-50
2021/11/05 21:34:17;;;;;;;;;;;16.30;43.30;;;;;;8362962;28;19917;-51
2021/11/05 21:38:20;;;;;;;;;;;16.30;43.30;;;;;;8362479;28;19917;-52
2021/11/05 21:42:21;;;;;;;;;;;16.30;43.30;;;;;;8361512;28;20015;-49
2021/11/05 21:46:21;;;;;;;;;;;16.30;43.30;;;;;;8363495;28;19920;-47
2021/11/05 21:50:22;;;;;;;;;;;16.30;43.20;;;;;;8362609;28;19917;-48
2021/11/05 21:54:22;;;;;;;;;;;16.30;43.30;;;;;;8365463;28;20369;-48
2021/11/05 21:58:23;;;;;;;;;;;16.30;43.20;;;;;;8369005;28;19924;-49
2021/11/05 22:02:23;;;;;;;;;;;16.20;43.20;;;;;;8367992;28;19921;-49
2021/11/05 22:06:24;;;;;;;;;;;16.20;43.20;;;;;;8369076;28;19952;-47
2021/11/05 22:10:24;;;;;;;;;;;16.20;43.20;;;;;;8368462;28;19917;-48
2021/11/05 22:14:25;;;;;;;;;;;16.30;43.20;;;;;;8367712;28;19917;-49
2021/11/05 22:18:26;;;;;;;;;;;16.30;43.20;;;;;;8368055;28;19916;-48
2021/11/05 22:22:26;;;;;;;;;;;16.30;43.10;;;;;;8368371;28;19949;-48
2021/11/05 22:26:26;;;;;;;;;;;16.30;43.10;;;;;;8367727;28;20019;-49
2021/11/05 22:30:27;;;;;;;;;;;16.30;43.00;;;;;;8367696;28;20003;-50
2021/11/05 22:34:27;;;;;;;;;;;16.30;43.00;;;;;;8367861;28;19917;-48
2021/11/05 22:38:28;;;;;;;;;;;16.30;43.00;;;;;;8367298;28;19917;-47
2021/11/05 22:42:29;;;;;;;;;;;16.30;42.90;;;;;;8367963;28;19925;-46
2021/11/05 22:46:30;;;;;;;;;;;16.40;43.00;;;;;;8367578;28;19917;-47
2021/11/05 22:50:31;;;;;;;;;;;16.40;42.90;;;;;;8366788;28;20262;-47
2021/11/05 22:54:31;;;;;;;;;;;16.30;42.90;;;;;;8367197;28;19920;-48
2021/11/05 22:58:32;;;;;;;;;;;16.30;42.90;;;;;;8366984;28;20370;-51
2021/11/05 23:02:32;;;;;;;;;;;16.40;42.90;;;;;;8374470;28;19928;-52
2021/11/05 23:06:33;;;;;;;;;;;16.40;43.00;;;;;;8365375;28;20007;-48
2021/11/05 23:10:34;;;;;;;;;;;16.30;42.90;;;;;;8366679;28;19917;-49
2021/11/05 23:14:34;;;;;;;;;;;16.30;42.90;;;;;;8366113;28;19971;-51
2021/11/05 23:18:34;;;;;;;;;;;16.30;42.90;;;;;;8366506;28;19921;-47
2021/11/05 23:22:35;;;;;;;;;;;16.30;42.90;;;;;;8366145;28;19921;-46